Terminal Aerodrome Forecast
Issued by NWS Paducah, KY

Home | Current Version | Previous Version | Text Only | Print | Product List | Glossary On
Versions: 1 2 3 4 5 6 7 8 9 10 11
000
FTUS43 KPAH 201700
TAFEVV
TAF
KEVV 201720Z 2018/2118 26011G17KT P6SM SCT035
      TEMPO 2018/2021 BKN035
     FM210000 00000KT P6SM SCT250
     FM211500 09005KT P6SM SCT150 BKN250=

USA.gov is the U.S. government's official web portal to all federal, state and local government web resources and services.